sensor_id;sensor_type;location;lat;lon;timestamp;P1;durP1;ratioP1;P2;durP2;ratioP2
29878;SDS011;16752;53.364;-1.488;2023-03-26T00:02:13;22.40;;;12.00;;
29878;SDS011;16752;53.364;-1.488;2023-03-26T00:04:57;20.88;;;11.38;;
29878;SDS011;16752;53.364;-1.488;2023-03-26T00:07:41;23.42;;;11.10;;
29878;SDS011;16752;53.364;-1.488;2023-03-26T00:10:25;28.50;;;11.30;;
29878;SDS011;16752;53.364;-1.488;2023-03-26T00:13:09;20.58;;;12.30;;
29878;SDS011;16752;53.364;-1.488;2023-03-26T00:15:54;19.98;;;11.05;;
29878;SDS011;16752;53.364;-1.488;2023-03-26T00:18:42;25.75;;;13.02;;
29878;SDS011;16752;53.364;-1.488;2023-03-26T00:21:28;31.90;;;12.10;;
29878;SDS011;16752;53.364;-1.488;2023-03-26T00:24:13;28.58;;;11.85;;
29878;SDS011;16752;53.364;-1.488;2023-03-26T00:27:00;28.92;;;13.05;;
29878;SDS011;16752;53.364;-1.488;2023-03-26T00:29:44;22.58;;;11.85;;
29878;SDS011;16752;53.364;-1.488;2023-03-26T00:32:31;19.95;;;11.35;;
29878;SDS011;16752;53.364;-1.488;2023-03-26T00:35:15;21.23;;;10.93;;
29878;SDS011;16752;53.364;-1.488;2023-03-26T00:37:59;17.98;;;9.30;;
29878;SDS011;16752;53.364;-1.488;2023-03-26T00:40:44;17.50;;;9.27;;
29878;SDS011;16752;53.364;-1.488;2023-03-26T00:43:31;19.67;;;8.05;;
29878;SDS011;16752;53.364;-1.488;2023-03-26T00:46:16;20.05;;;9.00;;
29878;SDS011;16752;53.364;-1.488;2023-03-26T00:49:01;19.95;;;7.55;;
29878;SDS011;16752;53.364;-1.488;2023-03-26T00:51:46;15.88;;;7.38;;
29878;SDS011;16752;53.364;-1.488;2023-03-26T00:54:30;26.88;;;9.88;;
29878;SDS011;16752;53.364;-1.488;2023-03-26T00:57:14;25.27;;;9.98;;
29878;SDS011;16752;53.364;-1.488;2023-03-26T00:59:58;20.38;;;9.35;;
29878;SDS011;16752;53.364;-1.488;2023-03-26T01:02:52;25.02;;;10.13;;
29878;SDS011;16752;53.364;-1.488;2023-03-26T01:05:48;22.42;;;10.48;;
29878;SDS011;16752;53.364;-1.488;2023-03-26T01:08:44;27.85;;;10.00;;
29878;SDS011;16752;53.364;-1.488;2023-03-26T01:11:52;25.58;;;8.88;;
29878;SDS011;16752;53.364;-1.488;2023-03-26T01:14:41;17.60;;;7.73;;
29878;SDS011;16752;53.364;-1.488;2023-03-26T01:17:26;19.73;;;7.80;;
29878;SDS011;16752;53.364;-1.488;2023-03-26T01:20:21;19.60;;;7.95;;
29878;SDS011;16752;53.364;-1.488;2023-03-26T01:23:08;13.85;;;5.65;;
29878;SDS011;16752;53.364;-1.488;2023-03-26T01:26:04;17.73;;;6.35;;
29878;SDS011;16752;53.364;-1.488;2023-03-26T01:29:10;14.20;;;5.82;;
29878;SDS011;16752;53.364;-1.488;2023-03-26T01:41:31;17.93;;;7.13;;
29878;SDS011;16752;53.364;-1.488;2023-03-26T01:47:36;20.17;;;8.85;;
29878;SDS011;16752;53.364;-1.488;2023-03-26T01:50:22;21.70;;;7.97;;
29878;SDS011;16752;53.364;-1.488;2023-03-26T01:53:07;27.42;;;10.57;;
29878;SDS011;16752;53.364;-1.488;2023-03-26T01:56:24;22.38;;;8.75;;
29878;SDS011;16752;53.364;-1.488;2023-03-26T01:59:32;24.45;;;10.07;;
29878;SDS011;16752;53.364;-1.488;2023-03-26T02:02:29;25.58;;;9.20;;
29878;SDS011;16752;53.364;-1.488;2023-03-26T02:08:31;17.48;;;8.95;;
29878;SDS011;16752;53.364;-1.488;2023-03-26T02:11:20;19.50;;;9.07;;
29878;SDS011;16752;53.364;-1.488;2023-03-26T02:14:04;22.33;;;8.38;;
29878;SDS011;16752;53.364;-1.488;2023-03-26T02:16:51;24.45;;;7.53;;
29878;SDS011;16752;53.364;-1.488;2023-03-26T02:19:35;29.48;;;8.30;;
29878;SDS011;16752;53.364;-1.488;2023-03-26T02:22:25;21.67;;;7.90;;
29878;SDS011;16752;53.364;-1.488;2023-03-26T02:25:19;25.75;;;7.68;;
29878;SDS011;16752;53.364;-1.488;2023-03-26T02:28:03;23.27;;;7.80;;
29878;SDS011;16752;53.364;-1.488;2023-03-26T02:30:48;20.38;;;7.80;;
29878;SDS011;16752;53.364;-1.488;2023-03-26T02:33:32;29.23;;;9.77;;
29878;SDS011;16752;53.364;-1.488;2023-03-26T02:36:16;21.13;;;9.85;;
29878;SDS011;16752;53.364;-1.488;2023-03-26T02:39:06;22.52;;;8.95;;
29878;SDS011;16752;53.364;-1.488;2023-03-26T02:41:51;32.08;;;9.15;;
29878;SDS011;16752;53.364;-1.488;2023-03-26T02:44:35;21.35;;;8.63;;
29878;SDS011;16752;53.364;-1.488;2023-03-26T02:47:22;22.55;;;10.90;;
29878;SDS011;16752;53.364;-1.488;2023-03-26T02:50:06;23.33;;;10.18;;
29878;SDS011;16752;53.364;-1.488;2023-03-26T02:52:51;27.60;;;10.20;;
29878;SDS011;16752;53.364;-1.488;2023-03-26T02:55:36;21.80;;;9.07;;
29878;SDS011;16752;53.364;-1.488;2023-03-26T02:58:21;23.70;;;9.10;;
29878;SDS011;16752;53.364;-1.488;2023-03-26T03:01:07;26.42;;;9.85;;
29878;SDS011;16752;53.364;-1.488;2023-03-26T03:03:51;31.20;;;9.25;;
29878;SDS011;16752;53.364;-1.488;2023-03-26T03:06:36;22.67;;;8.32;;
29878;SDS011;16752;53.364;-1.488;2023-03-26T03:09:21;22.80;;;9.00;;
29878;SDS011;16752;53.364;-1.488;2023-03-26T03:12:07;28.38;;;10.30;;
29878;SDS011;16752;53.364;-1.488;2023-03-26T03:14:51;29.17;;;9.07;;
29878;SDS011;16752;53.364;-1.488;2023-03-26T03:17:36;25.85;;;10.52;;
29878;SDS011;16752;53.364;-1.488;2023-03-26T03:20:20;24.98;;;12.15;;
29878;SDS011;16752;53.364;-1.488;2023-03-26T03:23:04;34.10;;;14.68;;
29878;SDS011;16752;53.364;-1.488;2023-03-26T03:25:48;41.22;;;15.02;;
29878;SDS011;16752;53.364;-1.488;2023-03-26T03:28:36;32.65;;;16.10;;
29878;SDS011;16752;53.364;-1.488;2023-03-26T03:31:20;40.22;;;15.52;;
29878;SDS011;16752;53.364;-1.488;2023-03-26T03:34:04;43.15;;;15.85;;
29878;SDS011;16752;53.364;-1.488;2023-03-26T03:36:48;38.63;;;15.40;;
29878;SDS011;16752;53.364;-1.488;2023-03-26T03:39:34;36.83;;;15.10;;
29878;SDS011;16752;53.364;-1.488;2023-03-26T03:42:18;37.92;;;14.38;;
29878;SDS011;16752;53.364;-1.488;2023-03-26T03:45:02;36.28;;;14.90;;
29878;SDS011;16752;53.364;-1.488;2023-03-26T03:47:49;33.88;;;14.77;;
29878;SDS011;16752;53.364;-1.488;2023-03-26T03:50:33;39.97;;;15.15;;
29878;SDS011;16752;53.364;-1.488;2023-03-26T03:53:18;28.63;;;14.80;;
29878;SDS011;16752;53.364;-1.488;2023-03-26T03:56:02;32.83;;;14.73;;
29878;SDS011;16752;53.364;-1.488;2023-03-26T03:58:47;32.42;;;14.27;;
29878;SDS011;16752;53.364;-1.488;2023-03-26T04:01:31;32.65;;;14.70;;
29878;SDS011;16752;53.364;-1.488;2023-03-26T04:04:16;33.95;;;14.75;;
29878;SDS011;16752;53.364;-1.488;2023-03-26T04:07:23;35.55;;;12.18;;
29878;SDS011;16752;53.364;-1.488;2023-03-26T04:10:08;30.60;;;11.82;;
29878;SDS011;16752;53.364;-1.488;2023-03-26T04:12:57;36.50;;;12.63;;
29878;SDS011;16752;53.364;-1.488;2023-03-26T04:15:44;21.98;;;10.43;;
29878;SDS011;16752;53.364;-1.488;2023-03-26T04:18:28;39.05;;;12.70;;
29878;SDS011;16752;53.364;-1.488;2023-03-26T04:21:14;40.72;;;12.55;;
29878;SDS011;16752;53.364;-1.488;2023-03-26T04:24:00;32.78;;;10.90;;
29878;SDS011;16752;53.364;-1.488;2023-03-26T04:26:45;31.33;;;10.40;;
29878;SDS011;16752;53.364;-1.488;2023-03-26T04:29:32;30.40;;;10.45;;
29878;SDS011;16752;53.364;-1.488;2023-03-26T04:32:27;29.30;;;9.82;;
29878;SDS011;16752;53.364;-1.488;2023-03-26T04:35:13;20.15;;;8.85;;
29878;SDS011;16752;53.364;-1.488;2023-03-26T04:38:00;25.70;;;8.93;;
29878;SDS011;16752;53.364;-1.488;2023-03-26T04:40:53;29.85;;;8.63;;
29878;SDS011;16752;53.364;-1.488;2023-03-26T04:43:43;26.58;;;7.63;;
29878;SDS011;16752;53.364;-1.488;2023-03-26T04:46:29;30.10;;;8.15;;
29878;SDS011;16752;53.364;-1.488;2023-03-26T04:49:17;20.08;;;6.15;;
29878;SDS011;16752;53.364;-1.488;2023-03-26T04:52:02;20.75;;;6.70;;
29878;SDS011;16752;53.364;-1.488;2023-03-26T04:54:47;15.23;;;6.53;;
29878;SDS011;16752;53.364;-1.488;2023-03-26T04:57:32;27.67;;;6.30;;
29878;SDS011;16752;53.364;-1.488;2023-03-26T05:00:20;18.77;;;5.68;;
29878;SDS011;16752;53.364;-1.488;2023-03-26T05:03:07;23.17;;;5.85;;
29878;SDS011;16752;53.364;-1.488;2023-03-26T05:05:52;18.17;;;5.30;;
29878;SDS011;16752;53.364;-1.488;2023-03-26T05:08:37;18.65;;;4.40;;
29878;SDS011;16752;53.364;-1.488;2023-03-26T05:11:21;13.85;;;3.88;;
29878;SDS011;16752;53.364;-1.488;2023-03-26T05:14:11;23.90;;;5.32;;
29878;SDS011;16752;53.364;-1.488;2023-03-26T05:16:56;24.50;;;3.80;;
29878;SDS011;16752;53.364;-1.488;2023-03-26T05:19:40;13.50;;;3.90;;
29878;SDS011;16752;53.364;-1.488;2023-03-26T05:22:27;27.70;;;5.18;;
29878;SDS011;16752;53.364;-1.488;2023-03-26T05:25:16;16.73;;;3.97;;
29878;SDS011;16752;53.364;-1.488;2023-03-26T05:28:09;18.85;;;3.70;;
29878;SDS011;16752;53.364;-1.488;2023-03-26T05:30:58;16.92;;;3.90;;
29878;SDS011;16752;53.364;-1.488;2023-03-26T05:33:43;28.35;;;4.55;;
29878;SDS011;16752;53.364;-1.488;2023-03-26T05:36:28;18.83;;;3.95;;
29878;SDS011;16752;53.364;-1.488;2023-03-26T05:39:12;17.95;;;4.18;;
29878;SDS011;16752;53.364;-1.488;2023-03-26T05:41:57;16.05;;;3.95;;
29878;SDS011;16752;53.364;-1.488;2023-03-26T05:44:41;13.05;;;3.83;;
29878;SDS011;16752;53.364;-1.488;2023-03-26T05:47:26;18.48;;;4.07;;
29878;SDS011;16752;53.364;-1.488;2023-03-26T05:50:11;22.90;;;4.53;;
29878;SDS011;16752;53.364;-1.488;2023-03-26T05:52:55;25.20;;;4.22;;
29878;SDS011;16752;53.364;-1.488;2023-03-26T05:55:39;17.23;;;4.22;;
29878;SDS011;16752;53.364;-1.488;2023-03-26T05:58:24;17.00;;;4.20;;
29878;SDS011;16752;53.364;-1.488;2023-03-26T06:01:12;27.08;;;5.45;;
29878;SDS011;16752;53.364;-1.488;2023-03-26T06:03:59;27.65;;;4.57;;
29878;SDS011;16752;53.364;-1.488;2023-03-26T06:06:43;20.40;;;4.03;;
29878;SDS011;16752;53.364;-1.488;2023-03-26T06:09:33;19.55;;;4.20;;
29878;SDS011;16752;53.364;-1.488;2023-03-26T06:12:20;27.30;;;4.22;;
29878;SDS011;16752;53.364;-1.488;2023-03-26T06:15:05;22.00;;;5.22;;
29878;SDS011;16752;53.364;-1.488;2023-03-26T06:17:49;20.67;;;4.72;;
29878;SDS011;16752;53.364;-1.488;2023-03-26T06:20:34;15.73;;;3.63;;
29878;SDS011;16752;53.364;-1.488;2023-03-26T06:23:21;23.73;;;5.35;;
29878;SDS011;16752;53.364;-1.488;2023-03-26T06:26:05;22.40;;;4.65;;
29878;SDS011;16752;53.364;-1.488;2023-03-26T06:28:49;18.52;;;5.05;;
29878;SDS011;16752;53.364;-1.488;2023-03-26T06:31:36;29.00;;;4.95;;
29878;SDS011;16752;53.364;-1.488;2023-03-26T06:34:21;20.77;;;4.03;;
29878;SDS011;16752;53.364;-1.488;2023-03-26T06:37:06;23.45;;;5.75;;
29878;SDS011;16752;53.364;-1.488;2023-03-26T06:39:50;19.58;;;3.58;;
29878;SDS011;16752;53.364;-1.488;2023-03-26T06:42:34;16.15;;;4.57;;
29878;SDS011;16752;53.364;-1.488;2023-03-26T06:45:18;25.20;;;5.22;;
29878;SDS011;16752;53.364;-1.488;2023-03-26T06:48:03;15.70;;;3.80;;
29878;SDS011;16752;53.364;-1.488;2023-03-26T06:50:49;18.65;;;4.30;;
29878;SDS011;16752;53.364;-1.488;2023-03-26T06:53:35;28.95;;;4.90;;
29878;SDS011;16752;53.364;-1.488;2023-03-26T06:56:19;21.02;;;4.30;;
29878;SDS011;16752;53.364;-1.488;2023-03-26T06:59:03;35.42;;;7.28;;
29878;SDS011;16752;53.364;-1.488;2023-03-26T07:01:48;28.67;;;4.95;;
29878;SDS011;16752;53.364;-1.488;2023-03-26T07:04:33;14.75;;;3.80;;
29878;SDS011;16752;53.364;-1.488;2023-03-26T07:07:17;18.65;;;4.47;;
29878;SDS011;16752;53.364;-1.488;2023-03-26T07:10:04;17.45;;;4.10;;
29878;SDS011;16752;53.364;-1.488;2023-03-26T07:12:48;19.48;;;4.43;;
29878;SDS011;16752;53.364;-1.488;2023-03-26T07:15:33;24.60;;;4.38;;
29878;SDS011;16752;53.364;-1.488;2023-03-26T07:18:17;26.75;;;4.38;;
29878;SDS011;16752;53.364;-1.488;2023-03-26T07:21:01;13.55;;;3.33;;
29878;SDS011;16752;53.364;-1.488;2023-03-26T07:23:46;25.10;;;4.53;;
29878;SDS011;16752;53.364;-1.488;2023-03-26T07:26:38;17.23;;;4.15;;
29878;SDS011;16752;53.364;-1.488;2023-03-26T07:33:00;22.08;;;4.32;;
29878;SDS011;16752;53.364;-1.488;2023-03-26T07:35:52;17.13;;;3.30;;
29878;SDS011;16752;53.364;-1.488;2023-03-26T07:38:50;13.18;;;4.43;;
29878;SDS011;16752;53.364;-1.488;2023-03-26T07:41:50;25.05;;;4.32;;
29878;SDS011;16752;53.364;-1.488;2023-03-26T07:44:50;19.30;;;4.43;;
29878;SDS011;16752;53.364;-1.488;2023-03-26T07:47:40;17.05;;;4.35;;
29878;SDS011;16752;53.364;-1.488;2023-03-26T07:50:28;17.60;;;3.88;;
29878;SDS011;16752;53.364;-1.488;2023-03-26T07:53:13;17.58;;;3.58;;
29878;SDS011;16752;53.364;-1.488;2023-03-26T07:56:02;13.88;;;4.45;;
29878;SDS011;16752;53.364;-1.488;2023-03-26T07:58:51;12.68;;;3.58;;
29878;SDS011;16752;53.364;-1.488;2023-03-26T08:01:58;19.25;;;4.22;;
29878;SDS011;16752;53.364;-1.488;2023-03-26T08:07:57;19.27;;;4.07;;
29878;SDS011;16752;53.364;-1.488;2023-03-26T08:17:13;17.13;;;4.40;;
29878;SDS011;16752;53.364;-1.488;2023-03-26T08:20:06;16.25;;;4.25;;
29878;SDS011;16752;53.364;-1.488;2023-03-26T08:22:59;25.55;;;4.45;;
29878;SDS011;16752;53.364;-1.488;2023-03-26T08:26:00;16.63;;;4.28;;
29878;SDS011;16752;53.364;-1.488;2023-03-26T08:31:53;18.33;;;3.22;;
29878;SDS011;16752;53.364;-1.488;2023-03-26T08:34:39;19.20;;;3.63;;
29878;SDS011;16752;53.364;-1.488;2023-03-26T08:37:25;13.10;;;3.28;;
29878;SDS011;16752;53.364;-1.488;2023-03-26T08:40:10;13.13;;;3.42;;
29878;SDS011;16752;53.364;-1.488;2023-03-26T08:43:01;19.73;;;4.05;;
29878;SDS011;16752;53.364;-1.488;2023-03-26T08:46:00;14.50;;;3.63;;
29878;SDS011;16752;53.364;-1.488;2023-03-26T08:52:47;16.15;;;3.25;;
29878;SDS011;16752;53.364;-1.488;2023-03-26T08:55:56;21.77;;;4.70;;
29878;SDS011;16752;53.364;-1.488;2023-03-26T09:02:09;18.75;;;3.35;;
29878;SDS011;16752;53.364;-1.488;2023-03-26T09:42:09;13.25;;;3.30;;
29878;SDS011;16752;53.364;-1.488;2023-03-26T09:45:35;13.32;;;2.38;;
29878;SDS011;16752;53.364;-1.488;2023-03-26T09:48:52;12.73;;;3.40;;
29878;SDS011;16752;53.364;-1.488;2023-03-26T09:55:37;15.60;;;2.47;;
29878;SDS011;16752;53.364;-1.488;2023-03-26T10:01:41;9.23;;;2.92;;
29878;SDS011;16752;53.364;-1.488;2023-03-26T10:08:14;12.00;;;2.88;;
29878;SDS011;16752;53.364;-1.488;2023-03-26T10:14:17;10.70;;;2.15;;
29878;SDS011;16752;53.364;-1.488;2023-03-26T10:42:01;10.60;;;2.25;;
29878;SDS011;16752;53.364;-1.488;2023-03-26T11:00:24;5.25;;;2.63;;
29878;SDS011;16752;53.364;-1.488;2023-03-26T11:06:54;15.63;;;2.97;;
29878;SDS011;16752;53.364;-1.488;2023-03-26T11:13:12;8.20;;;2.33;;
29878;SDS011;16752;53.364;-1.488;2023-03-26T11:16:01;12.43;;;2.67;;
29878;SDS011;16752;53.364;-1.488;2023-03-26T11:18:51;14.00;;;2.63;;
29878;SDS011;16752;53.364;-1.488;2023-03-26T11:31:33;10.07;;;2.50;;
29878;SDS011;16752;53.364;-1.488;2023-03-26T11:34:20;14.05;;;2.70;;
29878;SDS011;16752;53.364;-1.488;2023-03-26T11:37:13;9.77;;;2.13;;
29878;SDS011;16752;53.364;-1.488;2023-03-26T11:40:19;8.80;;;2.50;;
29878;SDS011;16752;53.364;-1.488;2023-03-26T11:43:11;7.68;;;2.47;;
29878;SDS011;16752;53.364;-1.488;2023-03-26T11:45:57;11.35;;;2.63;;
29878;SDS011;16752;53.364;-1.488;2023-03-26T11:48:55;16.60;;;3.35;;
29878;SDS011;16752;53.364;-1.488;2023-03-26T11:51:45;7.82;;;2.67;;
29878;SDS011;16752;53.364;-1.488;2023-03-26T11:54:31;10.07;;;2.25;;
29878;SDS011;16752;53.364;-1.488;2023-03-26T11:57:18;9.82;;;2.63;;
29878;SDS011;16752;53.364;-1.488;2023-03-26T12:00:06;14.57;;;2.75;;
29878;SDS011;16752;53.364;-1.488;2023-03-26T12:03:00;19.45;;;2.70;;
29878;SDS011;16752;53.364;-1.488;2023-03-26T12:05:48;8.82;;;2.60;;
29878;SDS011;16752;53.364;-1.488;2023-03-26T12:08:37;11.32;;;2.50;;
29878;SDS011;16752;53.364;-1.488;2023-03-26T12:11:24;8.63;;;2.72;;
29878;SDS011;16752;53.364;-1.488;2023-03-26T12:14:18;12.40;;;2.78;;
29878;SDS011;16752;53.364;-1.488;2023-03-26T12:23:12;20.02;;;3.60;;
29878;SDS011;16752;53.364;-1.488;2023-03-26T12:26:29;7.75;;;2.45;;
29878;SDS011;16752;53.364;-1.488;2023-03-26T12:29:24;7.32;;;2.45;;
29878;SDS011;16752;53.364;-1.488;2023-03-26T12:32:12;12.75;;;2.67;;
29878;SDS011;16752;53.364;-1.488;2023-03-26T12:34:56;9.03;;;2.17;;
29878;SDS011;16752;53.364;-1.488;2023-03-26T12:37:46;4.07;;;1.33;;
29878;SDS011;16752;53.364;-1.488;2023-03-26T12:40:32;7.35;;;1.83;;
29878;SDS011;16752;53.364;-1.488;2023-03-26T12:43:30;6.45;;;2.22;;
29878;SDS011;16752;53.364;-1.488;2023-03-26T12:46:30;4.57;;;1.67;;
29878;SDS011;16752;53.364;-1.488;2023-03-26T12:49:16;4.18;;;2.00;;
29878;SDS011;16752;53.364;-1.488;2023-03-26T12:54:59;9.32;;;2.08;;
29878;SDS011;16752;53.364;-1.488;2023-03-26T13:03:57;8.90;;;1.63;;
29878;SDS011;16752;53.364;-1.488;2023-03-26T13:07:07;3.88;;;1.73;;
29878;SDS011;16752;53.364;-1.488;2023-03-26T13:19:50;6.65;;;1.98;;
29878;SDS011;16752;53.364;-1.488;2023-03-26T13:23:25;6.60;;;1.70;;
29878;SDS011;16752;53.364;-1.488;2023-03-26T13:29:19;6.75;;;2.22;;
29878;SDS011;16752;53.364;-1.488;2023-03-26T13:38:39;10.40;;;2.78;;
29878;SDS011;16752;53.364;-1.488;2023-03-26T13:41:47;9.85;;;1.88;;
29878;SDS011;16752;53.364;-1.488;2023-03-26T13:48:04;5.18;;;1.50;;
29878;SDS011;16752;53.364;-1.488;2023-03-26T13:50:59;9.93;;;3.38;;
29878;SDS011;16752;53.364;-1.488;2023-03-26T13:54:02;8.93;;;2.33;;
29878;SDS011;16752;53.364;-1.488;2023-03-26T13:56:55;8.93;;;1.83;;
29878;SDS011;16752;53.364;-1.488;2023-03-26T13:59:43;4.43;;;1.92;;
29878;SDS011;16752;53.364;-1.488;2023-03-26T14:02:33;5.35;;;1.77;;
29878;SDS011;16752;53.364;-1.488;2023-03-26T14:05:24;8.98;;;2.17;;
29878;SDS011;16752;53.364;-1.488;2023-03-26T14:11:21;10.23;;;2.17;;
29878;SDS011;16752;53.364;-1.488;2023-03-26T14:17:38;7.32;;;2.30;;
29878;SDS011;16752;53.364;-1.488;2023-03-26T14:23:38;10.02;;;2.30;;
29878;SDS011;16752;53.364;-1.488;2023-03-26T14:26:45;4.93;;;1.48;;
29878;SDS011;16752;53.364;-1.488;2023-03-26T14:29:51;10.05;;;2.67;;
29878;SDS011;16752;53.364;-1.488;2023-03-26T14:36:13;8.45;;;2.28;;
29878;SDS011;16752;53.364;-1.488;2023-03-26T14:42:18;5.32;;;2.22;;
29878;SDS011;16752;53.364;-1.488;2023-03-26T14:54:18;10.75;;;2.60;;
29878;SDS011;16752;53.364;-1.488;2023-03-26T15:03:30;8.57;;;2.17;;
29878;SDS011;16752;53.364;-1.488;2023-03-26T15:06:35;7.20;;;2.20;;
29878;SDS011;16752;53.364;-1.488;2023-03-26T15:12:43;8.45;;;2.05;;
29878;SDS011;16752;53.364;-1.488;2023-03-26T15:18:54;5.07;;;1.85;;
29878;SDS011;16752;53.364;-1.488;2023-03-26T15:29:03;8.57;;;2.90;;
29878;SDS011;16752;53.364;-1.488;2023-03-26T15:31:40;8.25;;;1.90;;
29878;SDS011;16752;53.364;-1.488;2023-03-26T15:37:45;6.30;;;2.83;;
29878;SDS011;16752;53.364;-1.488;2023-03-26T15:44:03;11.65;;;3.40;;
29878;SDS011;16752;53.364;-1.488;2023-03-26T15:47:00;13.17;;;4.60;;
29878;SDS011;16752;53.364;-1.488;2023-03-26T15:50:17;6.72;;;2.50;;
29878;SDS011;16752;53.364;-1.488;2023-03-26T15:56:23;11.02;;;3.92;;
29878;SDS011;16752;53.364;-1.488;2023-03-26T16:02:14;7.53;;;2.03;;
29878;SDS011;16752;53.364;-1.488;2023-03-26T16:17:18;7.80;;;2.03;;
29878;SDS011;16752;53.364;-1.488;2023-03-26T16:20:19;14.60;;;2.65;;
29878;SDS011;16752;53.364;-1.488;2023-03-26T16:52:12;6.97;;;1.95;;
29878;SDS011;16752;53.364;-1.488;2023-03-26T17:01:53;6.95;;;2.00;;
29878;SDS011;16752;53.364;-1.488;2023-03-26T17:04:50;9.70;;;1.98;;
29878;SDS011;16752;53.364;-1.488;2023-03-26T17:07:49;4.13;;;1.63;;
29878;SDS011;16752;53.364;-1.488;2023-03-26T17:17:30;6.38;;;1.67;;
29878;SDS011;16752;53.364;-1.488;2023-03-26T17:42:26;6.13;;;2.28;;
29878;SDS011;16752;53.364;-1.488;2023-03-26T17:45:15;8.40;;;2.20;;
29878;SDS011;16752;53.364;-1.488;2023-03-26T17:48:11;7.95;;;2.42;;
29878;SDS011;16752;53.364;-1.488;2023-03-26T17:51:47;5.45;;;1.98;;
29878;SDS011;16752;53.364;-1.488;2023-03-26T18:19:44;9.15;;;2.70;;
29878;SDS011;16752;53.364;-1.488;2023-03-26T18:22:37;3.40;;;2.03;;
29878;SDS011;16752;53.364;-1.488;2023-03-26T18:25:31;6.13;;;2.42;;
29878;SDS011;16752;53.364;-1.488;2023-03-26T18:28:48;8.00;;;2.70;;
29878;SDS011;16752;53.364;-1.488;2023-03-26T18:31:38;9.05;;;2.28;;
29878;SDS011;16752;53.364;-1.488;2023-03-26T18:34:25;2.95;;;1.98;;
29878;SDS011;16752;53.364;-1.488;2023-03-26T18:37:18;10.13;;;3.20;;
29878;SDS011;16752;53.364;-1.488;2023-03-26T18:43:15;9.35;;;2.70;;
29878;SDS011;16752;53.364;-1.488;2023-03-26T18:46:02;4.05;;;2.00;;
29878;SDS011;16752;53.364;-1.488;2023-03-26T18:48:50;17.27;;;3.13;;
29878;SDS011;16752;53.364;-1.488;2023-03-26T18:51:36;3.53;;;1.75;;
29878;SDS011;16752;53.364;-1.488;2023-03-26T18:54:25;10.48;;;2.17;;
29878;SDS011;16752;53.364;-1.488;2023-03-26T18:57:34;7.90;;;2.53;;
29878;SDS011;16752;53.364;-1.488;2023-03-26T19:00:37;8.32;;;2.50;;
29878;SDS011;16752;53.364;-1.488;2023-03-26T19:03:36;8.73;;;2.42;;
29878;SDS011;16752;53.364;-1.488;2023-03-26T19:06:45;7.65;;;3.22;;
29878;SDS011;16752;53.364;-1.488;2023-03-26T19:09:40;11.57;;;3.03;;
29878;SDS011;16752;53.364;-1.488;2023-03-26T19:13:03;10.02;;;3.15;;
29878;SDS011;16752;53.364;-1.488;2023-03-26T19:24:09;6.82;;;3.03;;
29878;SDS011;16752;53.364;-1.488;2023-03-26T19:27:20;6.97;;;3.13;;
29878;SDS011;16752;53.364;-1.488;2023-03-26T19:30:34;11.35;;;3.40;;
29878;SDS011;16752;53.364;-1.488;2023-03-26T19:37:25;13.38;;;4.20;;
29878;SDS011;16752;53.364;-1.488;2023-03-26T19:43:15;12.73;;;3.38;;
29878;SDS011;16752;53.364;-1.488;2023-03-26T19:46:02;10.50;;;4.00;;
29878;SDS011;16752;53.364;-1.488;2023-03-26T19:58:43;9.13;;;2.70;;
29878;SDS011;16752;53.364;-1.488;2023-03-26T20:01:32;9.75;;;2.60;;
29878;SDS011;16752;53.364;-1.488;2023-03-26T20:04:22;5.88;;;2.80;;
29878;SDS011;16752;53.364;-1.488;2023-03-26T20:07:10;6.53;;;3.00;;
29878;SDS011;16752;53.364;-1.488;2023-03-26T20:10:18;7.97;;;2.80;;
29878;SDS011;16752;53.364;-1.488;2023-03-26T20:13:26;7.32;;;3.42;;
29878;SDS011;16752;53.364;-1.488;2023-03-26T20:16:25;5.73;;;2.60;;
29878;SDS011;16752;53.364;-1.488;2023-03-26T20:19:17;5.15;;;2.78;;
29878;SDS011;16752;53.364;-1.488;2023-03-26T20:22:28;8.63;;;2.75;;
29878;SDS011;16752;53.364;-1.488;2023-03-26T20:30:41;13.88;;;5.78;;
29878;SDS011;16752;53.364;-1.488;2023-03-26T20:33:26;14.45;;;5.20;;
29878;SDS011;16752;53.364;-1.488;2023-03-26T20:36:13;12.98;;;5.10;;
29878;SDS011;16752;53.364;-1.488;2023-03-26T20:39:01;7.93;;;2.85;;
29878;SDS011;16752;53.364;-1.488;2023-03-26T20:42:10;7.43;;;2.20;;
29878;SDS011;16752;53.364;-1.488;2023-03-26T20:45:20;7.13;;;2.22;;
29878;SDS011;16752;53.364;-1.488;2023-03-26T20:48:16;8.07;;;2.35;;
29878;SDS011;16752;53.364;-1.488;2023-03-26T20:52:02;13.13;;;2.75;;
29878;SDS011;16752;53.364;-1.488;2023-03-26T20:58:17;11.77;;;3.38;;
29878;SDS011;16752;53.364;-1.488;2023-03-26T21:01:23;8.75;;;2.30;;
29878;SDS011;16752;53.364;-1.488;2023-03-26T21:04:12;11.30;;;3.22;;
29878;SDS011;16752;53.364;-1.488;2023-03-26T21:11:50;5.68;;;2.50;;
29878;SDS011;16752;53.364;-1.488;2023-03-26T21:14:19;7.30;;;2.50;;
29878;SDS011;16752;53.364;-1.488;2023-03-26T21:20:36;6.72;;;2.03;;
29878;SDS011;16752;53.364;-1.488;2023-03-26T21:38:43;7.75;;;2.28;;
29878;SDS011;16752;53.364;-1.488;2023-03-26T21:41:44;11.90;;;4.18;;
29878;SDS011;16752;53.364;-1.488;2023-03-26T21:44:40;9.02;;;2.42;;
29878;SDS011;16752;53.364;-1.488;2023-03-26T21:47:32;11.32;;;3.72;;
29878;SDS011;16752;53.364;-1.488;2023-03-26T21:50:20;16.98;;;3.55;;
29878;SDS011;16752;53.364;-1.488;2023-03-26T21:53:11;6.80;;;2.58;;
29878;SDS011;16752;53.364;-1.488;2023-03-26T22:05:21;12.57;;;3.20;;
29878;SDS011;16752;53.364;-1.488;2023-03-26T22:08:30;9.43;;;2.45;;
29878;SDS011;16752;53.364;-1.488;2023-03-26T22:11:25;5.40;;;2.05;;
29878;SDS011;16752;53.364;-1.488;2023-03-26T22:14:10;4.03;;;2.13;;
29878;SDS011;16752;53.364;-1.488;2023-03-26T22:16:55;9.73;;;2.60;;
29878;SDS011;16752;53.364;-1.488;2023-03-26T22:19:39;9.38;;;2.45;;
29878;SDS011;16752;53.364;-1.488;2023-03-26T22:22:32;6.88;;;2.40;;
29878;SDS011;16752;53.364;-1.488;2023-03-26T22:31:19;7.13;;;2.22;;
29878;SDS011;16752;53.364;-1.488;2023-03-26T22:34:06;10.27;;;2.22;;
29878;SDS011;16752;53.364;-1.488;2023-03-26T22:37:08;8.05;;;3.28;;
29878;SDS011;16752;53.364;-1.488;2023-03-26T22:39:55;6.43;;;2.67;;
29878;SDS011;16752;53.364;-1.488;2023-03-26T22:42:42;7.18;;;3.47;;
29878;SDS011;16752;53.364;-1.488;2023-03-26T22:45:26;10.73;;;2.50;;
29878;SDS011;16752;53.364;-1.488;2023-03-26T22:48:12;12.10;;;2.97;;
29878;SDS011;16752;53.364;-1.488;2023-03-26T22:51:07;3.97;;;2.15;;
29878;SDS011;16752;53.364;-1.488;2023-03-26T22:53:53;7.10;;;2.20;;
29878;SDS011;16752;53.364;-1.488;2023-03-26T22:56:38;9.18;;;1.95;;
29878;SDS011;16752;53.364;-1.488;2023-03-26T22:59:31;6.90;;;1.98;;
29878;SDS011;16752;53.364;-1.488;2023-03-26T23:02:22;6.70;;;2.25;;
29878;SDS011;16752;53.364;-1.488;2023-03-26T23:05:07;7.13;;;1.88;;
29878;SDS011;16752;53.364;-1.488;2023-03-26T23:07:58;5.60;;;2.07;;
29878;SDS011;16752;53.364;-1.488;2023-03-26T23:10:46;10.98;;;2.53;;
29878;SDS011;16752;53.364;-1.488;2023-03-26T23:13:31;10.52;;;1.75;;
29878;SDS011;16752;53.364;-1.488;2023-03-26T23:16:26;5.15;;;1.45;;
29878;SDS011;16752;53.364;-1.488;2023-03-26T23:19:20;4.90;;;1.73;;
29878;SDS011;16752;53.364;-1.488;2023-03-26T23:22:10;5.07;;;1.88;;
29878;SDS011;16752;53.364;-1.488;2023-03-26T23:25:05;3.28;;;1.50;;
29878;SDS011;16752;53.364;-1.488;2023-03-26T23:27:58;8.05;;;1.73;;
29878;SDS011;16752;53.364;-1.488;2023-03-26T23:30:48;5.90;;;2.05;;
29878;SDS011;16752;53.364;-1.488;2023-03-26T23:36:29;3.20;;;1.60;;
29878;SDS011;16752;53.364;-1.488;2023-03-26T23:39:33;5.65;;;2.05;;
29878;SDS011;16752;53.364;-1.488;2023-03-26T23:42:29;7.45;;;1.65;;
29878;SDS011;16752;53.364;-1.488;2023-03-26T23:45:13;2.70;;;1.33;;
29878;SDS011;16752;53.364;-1.488;2023-03-26T23:48:01;4.70;;;1.67;;